sensor_id;sensor_type;location;lat;lon;timestamp;P1;durP1;ratioP1;P2;durP2;ratioP2
47367;SDS011;34646;47.964;7.982;2023-06-24T00:00:31;3.67;;;2.80;;
47367;SDS011;34646;47.964;7.982;2023-06-24T00:06:31;4.47;;;2.70;;
47367;SDS011;34646;47.964;7.982;2023-06-24T00:12:32;4.33;;;2.80;;
47367;SDS011;34646;47.964;7.982;2023-06-24T00:18:33;3.83;;;3.20;;
47367;SDS011;34646;47.964;7.982;2023-06-24T00:24:35;3.50;;;2.75;;
47367;SDS011;34646;47.964;7.982;2023-06-24T00:30:35;4.57;;;2.47;;
47367;SDS011;34646;47.964;7.982;2023-06-24T00:36:36;4.83;;;3.13;;
47367;SDS011;34646;47.964;7.982;2023-06-24T00:42:38;4.30;;;3.33;;
47367;SDS011;34646;47.964;7.982;2023-06-24T00:48:39;4.47;;;2.88;;
47367;SDS011;34646;47.964;7.982;2023-06-24T00:54:40;4.53;;;3.20;;
47367;SDS011;34646;47.964;7.982;2023-06-24T01:00:42;3.80;;;2.97;;
47367;SDS011;34646;47.964;7.982;2023-06-24T01:06:44;4.32;;;2.90;;
47367;SDS011;34646;47.964;7.982;2023-06-24T01:12:45;3.67;;;2.88;;
47367;SDS011;34646;47.964;7.982;2023-06-24T01:18:46;5.28;;;2.65;;
47367;SDS011;34646;47.964;7.982;2023-06-24T01:37:39;4.75;;;2.78;;
47367;SDS011;34646;47.964;7.982;2023-06-24T01:43:44;4.90;;;2.75;;
47367;SDS011;34646;47.964;7.982;2023-06-24T01:49:45;4.40;;;2.75;;
47367;SDS011;34646;47.964;7.982;2023-06-24T01:55:46;3.65;;;2.88;;
47367;SDS011;34646;47.964;7.982;2023-06-24T02:01:50;3.35;;;2.90;;
47367;SDS011;34646;47.964;7.982;2023-06-24T02:07:52;3.60;;;2.38;;
47367;SDS011;34646;47.964;7.982;2023-06-24T02:13:54;3.28;;;2.65;;
47367;SDS011;34646;47.964;7.982;2023-06-24T02:25:59;3.20;;;2.53;;
47367;SDS011;34646;47.964;7.982;2023-06-24T02:32:01;3.33;;;2.95;;
47367;SDS011;34646;47.964;7.982;2023-06-24T02:38:02;8.05;;;3.25;;
47367;SDS011;34646;47.964;7.982;2023-06-24T02:44:03;3.65;;;2.70;;
47367;SDS011;34646;47.964;7.982;2023-06-24T02:50:04;6.70;;;3.15;;
47367;SDS011;34646;47.964;7.982;2023-06-24T02:56:08;4.13;;;3.00;;
47367;SDS011;34646;47.964;7.982;2023-06-24T03:02:15;4.55;;;2.97;;
47367;SDS011;34646;47.964;7.982;2023-06-24T03:08:17;4.22;;;3.10;;
47367;SDS011;34646;47.964;7.982;2023-06-24T03:14:20;4.07;;;2.75;;
47367;SDS011;34646;47.964;7.982;2023-06-24T03:20:21;4.30;;;3.00;;
47367;SDS011;34646;47.964;7.982;2023-06-24T03:26:24;4.60;;;2.95;;
47367;SDS011;34646;47.964;7.982;2023-06-24T03:32:47;4.72;;;3.13;;
47367;SDS011;34646;47.964;7.982;2023-06-24T03:38:51;5.38;;;2.85;;
47367;SDS011;34646;47.964;7.982;2023-06-24T04:02:56;4.37;;;2.90;;
47367;SDS011;34646;47.964;7.982;2023-06-24T04:09:01;4.10;;;3.17;;
47367;SDS011;34646;47.964;7.982;2023-06-24T04:15:03;5.95;;;3.10;;
47367;SDS011;34646;47.964;7.982;2023-06-24T04:21:06;6.28;;;3.67;;
47367;SDS011;34646;47.964;7.982;2023-06-24T04:27:08;4.80;;;3.60;;
47367;SDS011;34646;47.964;7.982;2023-06-24T04:39:10;4.50;;;3.40;;
47367;SDS011;34646;47.964;7.982;2023-06-24T04:45:10;4.30;;;2.90;;
47367;SDS011;34646;47.964;7.982;2023-06-24T04:51:11;4.75;;;3.30;;
47367;SDS011;34646;47.964;7.982;2023-06-24T04:57:22;4.80;;;2.97;;
47367;SDS011;34646;47.964;7.982;2023-06-24T05:03:24;5.10;;;3.08;;
47367;SDS011;34646;47.964;7.982;2023-06-24T05:09:25;6.63;;;3.40;;
47367;SDS011;34646;47.964;7.982;2023-06-24T05:15:25;4.77;;;3.30;;
47367;SDS011;34646;47.964;7.982;2023-06-24T05:21:26;6.87;;;3.40;;
47367;SDS011;34646;47.964;7.982;2023-06-24T05:27:27;8.60;;;3.40;;
47367;SDS011;34646;47.964;7.982;2023-06-24T05:33:28;4.40;;;3.20;;
47367;SDS011;34646;47.964;7.982;2023-06-24T05:39:29;5.83;;;3.90;;
47367;SDS011;34646;47.964;7.982;2023-06-24T05:45:31;7.22;;;3.67;;
47367;SDS011;34646;47.964;7.982;2023-06-24T05:51:31;6.17;;;3.97;;
47367;SDS011;34646;47.964;7.982;2023-06-24T05:57:32;5.93;;;4.10;;
47367;SDS011;34646;47.964;7.982;2023-06-24T06:03:33;5.30;;;4.18;;
47367;SDS011;34646;47.964;7.982;2023-06-24T06:09:34;7.23;;;4.60;;
47367;SDS011;34646;47.964;7.982;2023-06-24T06:15:34;9.07;;;3.90;;
47367;SDS011;34646;47.964;7.982;2023-06-24T06:21:36;5.97;;;4.93;;
47367;SDS011;34646;47.964;7.982;2023-06-24T06:33:37;6.32;;;4.22;;
47367;SDS011;34646;47.964;7.982;2023-06-24T06:39:38;5.70;;;3.70;;
47367;SDS011;34646;47.964;7.982;2023-06-24T06:45:39;6.93;;;4.03;;
47367;SDS011;34646;47.964;7.982;2023-06-24T06:51:40;5.68;;;4.05;;
47367;SDS011;34646;47.964;7.982;2023-06-24T06:57:40;5.20;;;3.83;;
47367;SDS011;34646;47.964;7.982;2023-06-24T07:03:42;7.28;;;3.83;;
47367;SDS011;34646;47.964;7.982;2023-06-24T07:09:43;7.78;;;3.50;;
47367;SDS011;34646;47.964;7.982;2023-06-24T07:15:44;5.68;;;3.97;;
47367;SDS011;34646;47.964;7.982;2023-06-24T07:21:44;4.33;;;3.27;;
47367;SDS011;34646;47.964;7.982;2023-06-24T07:27:45;4.70;;;3.47;;
47367;SDS011;34646;47.964;7.982;2023-06-24T07:33:46;3.40;;;2.97;;
47367;SDS011;34646;47.964;7.982;2023-06-24T07:39:46;3.70;;;2.90;;
47367;SDS011;34646;47.964;7.982;2023-06-24T07:45:48;6.25;;;2.90;;
47367;SDS011;34646;47.964;7.982;2023-06-24T07:51:49;5.78;;;3.13;;
47367;SDS011;34646;47.964;7.982;2023-06-24T07:57:49;7.90;;;3.07;;
47367;SDS011;34646;47.964;7.982;2023-06-24T08:03:50;4.67;;;3.17;;
47367;SDS011;34646;47.964;7.982;2023-06-24T08:09:51;5.30;;;3.07;;
47367;SDS011;34646;47.964;7.982;2023-06-24T08:15:51;6.30;;;3.10;;
47367;SDS011;34646;47.964;7.982;2023-06-24T08:21:52;3.70;;;2.70;;
47367;SDS011;34646;47.964;7.982;2023-06-24T08:27:53;4.93;;;3.00;;
47367;SDS011;34646;47.964;7.982;2023-06-24T08:33:54;4.73;;;3.00;;
47367;SDS011;34646;47.964;7.982;2023-06-24T08:39:58;4.25;;;3.00;;
47367;SDS011;34646;47.964;7.982;2023-06-24T08:45:59;4.97;;;3.13;;
47367;SDS011;34646;47.964;7.982;2023-06-24T08:52:04;5.37;;;3.13;;
47367;SDS011;34646;47.964;7.982;2023-06-24T08:58:13;4.13;;;2.75;;
47367;SDS011;34646;47.964;7.982;2023-06-24T09:04:14;12.70;;;3.47;;
47367;SDS011;34646;47.964;7.982;2023-06-24T09:10:34;15.73;;;3.10;;
47367;SDS011;34646;47.964;7.982;2023-06-24T09:16:35;23.58;;;3.60;;
47367;SDS011;34646;47.964;7.982;2023-06-24T09:22:38;30.00;;;3.73;;
47367;SDS011;34646;47.964;7.982;2023-06-24T09:28:40;14.77;;;3.45;;
47367;SDS011;34646;47.964;7.982;2023-06-24T09:34:43;6.95;;;2.83;;
47367;SDS011;34646;47.964;7.982;2023-06-24T09:40:43;7.10;;;3.17;;
47367;SDS011;34646;47.964;7.982;2023-06-24T09:46:45;14.13;;;3.33;;
47367;SDS011;34646;47.964;7.982;2023-06-24T09:52:47;6.03;;;2.30;;
47367;SDS011;34646;47.964;7.982;2023-06-24T09:58:49;7.47;;;3.00;;
47367;SDS011;34646;47.964;7.982;2023-06-24T10:04:50;5.65;;;3.20;;
47367;SDS011;34646;47.964;7.982;2023-06-24T10:10:52;6.60;;;2.40;;
47367;SDS011;34646;47.964;7.982;2023-06-24T10:17:01;3.77;;;2.60;;
47367;SDS011;34646;47.964;7.982;2023-06-24T10:23:08;6.07;;;2.63;;
47367;SDS011;34646;47.964;7.982;2023-06-24T10:29:09;6.05;;;2.88;;
47367;SDS011;34646;47.964;7.982;2023-06-24T10:41:24;5.22;;;2.75;;
47367;SDS011;34646;47.964;7.982;2023-06-24T10:47:25;5.50;;;2.78;;
47367;SDS011;34646;47.964;7.982;2023-06-24T10:53:27;8.25;;;3.17;;
47367;SDS011;34646;47.964;7.982;2023-06-24T10:59:40;5.78;;;2.70;;
47367;SDS011;34646;47.964;7.982;2023-06-24T11:05:48;3.92;;;2.78;;
47367;SDS011;34646;47.964;7.982;2023-06-24T11:11:49;5.90;;;2.83;;
47367;SDS011;34646;47.964;7.982;2023-06-24T11:17:50;5.13;;;2.83;;
47367;SDS011;34646;47.964;7.982;2023-06-24T11:23:52;2.90;;;2.45;;
47367;SDS011;34646;47.964;7.982;2023-06-24T11:29:53;5.93;;;3.13;;
47367;SDS011;34646;47.964;7.982;2023-06-24T11:35:55;4.15;;;2.95;;
47367;SDS011;34646;47.964;7.982;2023-06-24T11:41:58;7.07;;;2.88;;
47367;SDS011;34646;47.964;7.982;2023-06-24T11:48:02;15.13;;;2.83;;
47367;SDS011;34646;47.964;7.982;2023-06-24T11:54:07;5.18;;;2.70;;
47367;SDS011;34646;47.964;7.982;2023-06-24T12:00:12;10.30;;;2.83;;
47367;SDS011;34646;47.964;7.982;2023-06-24T12:06:13;7.28;;;2.72;;
47367;SDS011;34646;47.964;7.982;2023-06-24T12:12:14;24.90;;;3.28;;
47367;SDS011;34646;47.964;7.982;2023-06-24T12:18:15;9.20;;;3.27;;
47367;SDS011;34646;47.964;7.982;2023-06-24T12:24:15;15.67;;;3.63;;
47367;SDS011;34646;47.964;7.982;2023-06-24T12:30:16;13.80;;;2.93;;
47367;SDS011;34646;47.964;7.982;2023-06-24T12:36:17;11.67;;;3.07;;
47367;SDS011;34646;47.964;7.982;2023-06-24T12:42:18;9.13;;;2.97;;
47367;SDS011;34646;47.964;7.982;2023-06-24T12:48:19;9.43;;;3.00;;
47367;SDS011;34646;47.964;7.982;2023-06-24T12:54:20;9.75;;;3.10;;
47367;SDS011;34646;47.964;7.982;2023-06-24T13:00:21;7.77;;;3.10;;
47367;SDS011;34646;47.964;7.982;2023-06-24T13:06:23;6.43;;;3.00;;
47367;SDS011;34646;47.964;7.982;2023-06-24T13:12:24;7.18;;;2.83;;
47367;SDS011;34646;47.964;7.982;2023-06-24T13:18:24;7.93;;;3.17;;
47367;SDS011;34646;47.964;7.982;2023-06-24T13:24:25;6.50;;;2.70;;
47367;SDS011;34646;47.964;7.982;2023-06-24T13:30:26;7.07;;;2.60;;
47367;SDS011;34646;47.964;7.982;2023-06-24T13:36:28;5.20;;;2.47;;
47367;SDS011;34646;47.964;7.982;2023-06-24T13:42:35;8.18;;;3.13;;
47367;SDS011;34646;47.964;7.982;2023-06-24T13:48:35;8.70;;;2.43;;
47367;SDS011;34646;47.964;7.982;2023-06-24T13:54:36;9.87;;;2.93;;
47367;SDS011;34646;47.964;7.982;2023-06-24T14:00:37;7.60;;;2.70;;
47367;SDS011;34646;47.964;7.982;2023-06-24T14:06:37;7.13;;;3.10;;
47367;SDS011;34646;47.964;7.982;2023-06-24T14:12:38;6.80;;;3.33;;
47367;SDS011;34646;47.964;7.982;2023-06-24T14:18:42;6.00;;;2.80;;
47367;SDS011;34646;47.964;7.982;2023-06-24T14:24:44;4.70;;;2.78;;
47367;SDS011;34646;47.964;7.982;2023-06-24T14:30:45;4.00;;;2.23;;
47367;SDS011;34646;47.964;7.982;2023-06-24T14:36:46;4.63;;;2.60;;
47367;SDS011;34646;47.964;7.982;2023-06-24T14:42:47;11.23;;;2.50;;
47367;SDS011;34646;47.964;7.982;2023-06-24T14:48:48;7.45;;;3.15;;
47367;SDS011;34646;47.964;7.982;2023-06-24T14:54:49;4.55;;;2.50;;
47367;SDS011;34646;47.964;7.982;2023-06-24T15:00:49;7.33;;;2.80;;
47367;SDS011;34646;47.964;7.982;2023-06-24T15:06:50;4.97;;;2.60;;
47367;SDS011;34646;47.964;7.982;2023-06-24T15:12:51;6.77;;;2.53;;
47367;SDS011;34646;47.964;7.982;2023-06-24T15:18:51;3.67;;;2.47;;
47367;SDS011;34646;47.964;7.982;2023-06-24T15:24:52;5.37;;;2.67;;
47367;SDS011;34646;47.964;7.982;2023-06-24T15:30:53;5.78;;;2.55;;
47367;SDS011;34646;47.964;7.982;2023-06-24T15:36:54;5.93;;;2.30;;
47367;SDS011;34646;47.964;7.982;2023-06-24T15:42:55;6.72;;;2.78;;
47367;SDS011;34646;47.964;7.982;2023-06-24T15:48:56;7.97;;;2.50;;
47367;SDS011;34646;47.964;7.982;2023-06-24T15:54:57;4.32;;;2.35;;
47367;SDS011;34646;47.964;7.982;2023-06-24T16:07:02;4.18;;;2.65;;
47367;SDS011;34646;47.964;7.982;2023-06-24T16:13:03;4.65;;;2.40;;
47367;SDS011;34646;47.964;7.982;2023-06-24T16:19:04;9.68;;;2.78;;
47367;SDS011;34646;47.964;7.982;2023-06-24T16:25:04;5.30;;;2.20;;
47367;SDS011;34646;47.964;7.982;2023-06-24T16:31:05;5.88;;;3.08;;
47367;SDS011;34646;47.964;7.982;2023-06-24T16:37:06;6.03;;;2.95;;
47367;SDS011;34646;47.964;7.982;2023-06-24T16:43:08;5.15;;;2.80;;
47367;SDS011;34646;47.964;7.982;2023-06-24T16:49:10;6.75;;;2.97;;
47367;SDS011;34646;47.964;7.982;2023-06-24T16:55:13;5.28;;;3.08;;
47367;SDS011;34646;47.964;7.982;2023-06-24T17:01:14;5.10;;;3.38;;
47367;SDS011;34646;47.964;7.982;2023-06-24T17:07:15;6.82;;;3.17;;
47367;SDS011;34646;47.964;7.982;2023-06-24T17:13:16;4.75;;;2.80;;
47367;SDS011;34646;47.964;7.982;2023-06-24T17:19:17;11.30;;;3.00;;
47367;SDS011;34646;47.964;7.982;2023-06-24T17:25:17;9.37;;;3.13;;
47367;SDS011;34646;47.964;7.982;2023-06-24T17:31:18;5.28;;;2.95;;
47367;SDS011;34646;47.964;7.982;2023-06-24T17:37:19;5.78;;;3.15;;
47367;SDS011;34646;47.964;7.982;2023-06-24T17:49:21;8.40;;;3.07;;
47367;SDS011;34646;47.964;7.982;2023-06-24T17:55:22;9.77;;;3.03;;
47367;SDS011;34646;47.964;7.982;2023-06-24T18:01:23;6.70;;;3.00;;
47367;SDS011;34646;47.964;7.982;2023-06-24T18:07:28;5.45;;;3.30;;
47367;SDS011;34646;47.964;7.982;2023-06-24T18:13:29;7.97;;;3.33;;
47367;SDS011;34646;47.964;7.982;2023-06-24T18:19:30;8.70;;;3.17;;
47367;SDS011;34646;47.964;7.982;2023-06-24T18:25:31;7.83;;;3.10;;
47367;SDS011;34646;47.964;7.982;2023-06-24T18:31:31;6.50;;;3.70;;
47367;SDS011;34646;47.964;7.982;2023-06-24T18:37:32;5.70;;;3.10;;
47367;SDS011;34646;47.964;7.982;2023-06-24T18:43:33;7.55;;;3.40;;
47367;SDS011;34646;47.964;7.982;2023-06-24T18:49:34;5.20;;;3.03;;
47367;SDS011;34646;47.964;7.982;2023-06-24T18:55:34;9.68;;;3.40;;
47367;SDS011;34646;47.964;7.982;2023-06-24T19:01:37;7.18;;;3.20;;
47367;SDS011;34646;47.964;7.982;2023-06-24T19:07:38;5.25;;;3.20;;
47367;SDS011;34646;47.964;7.982;2023-06-24T19:13:38;6.13;;;3.50;;
47367;SDS011;34646;47.964;7.982;2023-06-24T19:19:39;9.30;;;3.33;;
47367;SDS011;34646;47.964;7.982;2023-06-24T19:25:40;12.27;;;3.33;;
47367;SDS011;34646;47.964;7.982;2023-06-24T19:31:42;3.88;;;2.88;;
47367;SDS011;34646;47.964;7.982;2023-06-24T19:37:42;6.20;;;2.60;;
47367;SDS011;34646;47.964;7.982;2023-06-24T19:43:46;7.90;;;3.38;;
47367;SDS011;34646;47.964;7.982;2023-06-24T19:49:51;11.90;;;3.42;;
47367;SDS011;34646;47.964;7.982;2023-06-24T19:55:53;5.63;;;3.35;;
47367;SDS011;34646;47.964;7.982;2023-06-24T20:01:54;4.87;;;2.93;;
47367;SDS011;34646;47.964;7.982;2023-06-24T20:07:55;5.90;;;2.88;;
47367;SDS011;34646;47.964;7.982;2023-06-24T20:13:56;6.60;;;3.15;;
47367;SDS011;34646;47.964;7.982;2023-06-24T20:19:59;6.30;;;3.33;;
47367;SDS011;34646;47.964;7.982;2023-06-24T20:25:59;4.67;;;2.80;;
47367;SDS011;34646;47.964;7.982;2023-06-24T20:32:00;5.87;;;3.20;;
47367;SDS011;34646;47.964;7.982;2023-06-24T20:38:01;6.67;;;2.83;;
47367;SDS011;34646;47.964;7.982;2023-06-24T20:44:01;8.90;;;2.90;;
47367;SDS011;34646;47.964;7.982;2023-06-24T20:50:03;5.45;;;2.90;;
47367;SDS011;34646;47.964;7.982;2023-06-24T20:56:06;6.72;;;3.20;;
47367;SDS011;34646;47.964;7.982;2023-06-24T21:02:07;6.28;;;2.90;;
47367;SDS011;34646;47.964;7.982;2023-06-24T21:08:08;3.87;;;2.57;;
47367;SDS011;34646;47.964;7.982;2023-06-24T21:14:08;8.43;;;3.00;;
47367;SDS011;34646;47.964;7.982;2023-06-24T21:20:09;7.80;;;3.30;;
47367;SDS011;34646;47.964;7.982;2023-06-24T21:32:11;5.07;;;2.77;;
47367;SDS011;34646;47.964;7.982;2023-06-24T21:38:12;4.30;;;3.13;;
47367;SDS011;34646;47.964;7.982;2023-06-24T21:44:12;4.87;;;2.70;;
47367;SDS011;34646;47.964;7.982;2023-06-24T21:50:13;4.23;;;2.77;;
47367;SDS011;34646;47.964;7.982;2023-06-24T21:56:14;5.00;;;3.30;;
47367;SDS011;34646;47.964;7.982;2023-06-24T22:02:14;4.63;;;3.30;;
47367;SDS011;34646;47.964;7.982;2023-06-24T22:08:15;6.27;;;3.20;;
47367;SDS011;34646;47.964;7.982;2023-06-24T22:14:17;4.47;;;3.25;;
47367;SDS011;34646;47.964;7.982;2023-06-24T22:20:18;9.82;;;3.00;;
47367;SDS011;34646;47.964;7.982;2023-06-24T22:26:19;6.03;;;3.25;;
47367;SDS011;34646;47.964;7.982;2023-06-24T22:32:20;6.20;;;3.00;;
47367;SDS011;34646;47.964;7.982;2023-06-24T22:38:20;5.77;;;3.30;;
47367;SDS011;34646;47.964;7.982;2023-06-24T22:44:21;5.73;;;3.37;;
47367;SDS011;34646;47.964;7.982;2023-06-24T22:50:22;4.73;;;3.00;;
47367;SDS011;34646;47.964;7.982;2023-06-24T22:56:22;3.60;;;3.03;;
47367;SDS011;34646;47.964;7.982;2023-06-24T23:02:23;4.27;;;3.03;;
47367;SDS011;34646;47.964;7.982;2023-06-24T23:14:25;4.37;;;2.73;;
47367;SDS011;34646;47.964;7.982;2023-06-24T23:20:27;4.43;;;3.40;;
47367;SDS011;34646;47.964;7.982;2023-06-24T23:26:27;4.63;;;3.20;;
47367;SDS011;34646;47.964;7.982;2023-06-24T23:32:29;4.68;;;3.38;;
47367;SDS011;34646;47.964;7.982;2023-06-24T23:38:32;3.30;;;2.85;;
47367;SDS011;34646;47.964;7.982;2023-06-24T23:44:33;4.22;;;3.05;;
47367;SDS011;34646;47.964;7.982;2023-06-24T23:50:34;4.72;;;3.25;;
47367;SDS011;34646;47.964;7.982;2023-06-24T23:56:34;3.33;;;2.90;;
